sensor_id;sensor_type;location;lat;lon;timestamp;P1;durP1;ratioP1;P2;durP2;ratioP2
54743;SDS011;40639;53.170;6.728;2024-02-23T00:01:52;3.25;;;0.40;;
54743;SDS011;40639;53.170;6.728;2024-02-23T00:04:18;2.05;;;0.60;;
54743;SDS011;40639;53.170;6.728;2024-02-23T00:06:44;2.95;;;0.47;;
54743;SDS011;40639;53.170;6.728;2024-02-23T00:09:11;2.88;;;0.60;;
54743;SDS011;40639;53.170;6.728;2024-02-23T00:11:40;0.90;;;0.40;;
54743;SDS011;40639;53.170;6.728;2024-02-23T00:14:10;7.18;;;0.73;;
54743;SDS011;40639;53.170;6.728;2024-02-23T00:16:39;2.97;;;0.75;;
54743;SDS011;40639;53.170;6.728;2024-02-23T00:19:07;3.88;;;0.95;;
54743;SDS011;40639;53.170;6.728;2024-02-23T00:21:34;3.25;;;0.68;;
54743;SDS011;40639;53.170;6.728;2024-02-23T00:24:00;3.67;;;0.65;;
54743;SDS011;40639;53.170;6.728;2024-02-23T00:26:26;4.07;;;0.70;;
54743;SDS011;40639;53.170;6.728;2024-02-23T00:28:54;3.28;;;0.82;;
54743;SDS011;40639;53.170;6.728;2024-02-23T00:31:20;2.58;;;0.90;;
54743;SDS011;40639;53.170;6.728;2024-02-23T00:33:46;4.15;;;0.68;;
54743;SDS011;40639;53.170;6.728;2024-02-23T00:36:12;4.10;;;1.05;;
54743;SDS011;40639;53.170;6.728;2024-02-23T00:38:39;2.33;;;0.70;;
54743;SDS011;40639;53.170;6.728;2024-02-23T00:41:05;1.20;;;0.63;;
54743;SDS011;40639;53.170;6.728;2024-02-23T00:43:41;3.25;;;1.05;;
54743;SDS011;40639;53.170;6.728;2024-02-23T00:46:07;2.58;;;0.65;;
54743;SDS011;40639;53.170;6.728;2024-02-23T00:48:34;5.63;;;1.10;;
54743;SDS011;40639;53.170;6.728;2024-02-23T00:51:01;2.80;;;0.50;;
54743;SDS011;40639;53.170;6.728;2024-02-23T00:53:33;1.10;;;0.40;;
54743;SDS011;40639;53.170;6.728;2024-02-23T00:55:59;1.55;;;0.43;;
54743;SDS011;40639;53.170;6.728;2024-02-23T00:58:25;2.20;;;0.47;;
54743;SDS011;40639;53.170;6.728;2024-02-23T01:00:51;1.55;;;0.52;;
54743;SDS011;40639;53.170;6.728;2024-02-23T01:03:17;2.10;;;0.57;;
54743;SDS011;40639;53.170;6.728;2024-02-23T01:05:43;1.10;;;0.40;;
54743;SDS011;40639;53.170;6.728;2024-02-23T01:08:10;3.90;;;0.80;;
54743;SDS011;40639;53.170;6.728;2024-02-23T01:10:36;1.02;;;0.38;;
54743;SDS011;40639;53.170;6.728;2024-02-23T01:13:02;3.22;;;0.82;;
54743;SDS011;40639;53.170;6.728;2024-02-23T01:15:30;1.85;;;0.57;;
54743;SDS011;40639;53.170;6.728;2024-02-23T01:17:56;4.38;;;0.65;;
54743;SDS011;40639;53.170;6.728;2024-02-23T01:20:23;1.85;;;0.43;;
54743;SDS011;40639;53.170;6.728;2024-02-23T01:22:49;3.72;;;0.75;;
54743;SDS011;40639;53.170;6.728;2024-02-23T01:25:15;3.58;;;0.73;;
54743;SDS011;40639;53.170;6.728;2024-02-23T01:27:41;3.22;;;0.70;;
54743;SDS011;40639;53.170;6.728;2024-02-23T01:30:09;2.08;;;0.70;;
54743;SDS011;40639;53.170;6.728;2024-02-23T01:32:35;1.83;;;0.80;;
54743;SDS011;40639;53.170;6.728;2024-02-23T01:35:03;3.92;;;0.90;;
54743;SDS011;40639;53.170;6.728;2024-02-23T01:37:30;2.20;;;0.95;;
54743;SDS011;40639;53.170;6.728;2024-02-23T01:39:57;8.73;;;1.40;;
54743;SDS011;40639;53.170;6.728;2024-02-23T01:42:24;4.30;;;1.30;;
54743;SDS011;40639;53.170;6.728;2024-02-23T01:44:51;4.03;;;1.13;;
54743;SDS011;40639;53.170;6.728;2024-02-23T01:47:17;6.03;;;1.33;;
54743;SDS011;40639;53.170;6.728;2024-02-23T01:49:43;3.72;;;1.13;;
54743;SDS011;40639;53.170;6.728;2024-02-23T01:52:10;2.15;;;1.23;;
54743;SDS011;40639;53.170;6.728;2024-02-23T01:54:37;2.40;;;1.00;;
54743;SDS011;40639;53.170;6.728;2024-02-23T01:57:04;4.45;;;1.00;;
54743;SDS011;40639;53.170;6.728;2024-02-23T01:59:30;4.70;;;0.90;;
54743;SDS011;40639;53.170;6.728;2024-02-23T02:01:56;6.15;;;0.90;;
54743;SDS011;40639;53.170;6.728;2024-02-23T02:04:22;2.25;;;1.10;;
54743;SDS011;40639;53.170;6.728;2024-02-23T02:06:48;5.65;;;1.58;;
54743;SDS011;40639;53.170;6.728;2024-02-23T02:09:15;3.70;;;1.33;;
54743;SDS011;40639;53.170;6.728;2024-02-23T02:11:45;5.53;;;1.20;;
54743;SDS011;40639;53.170;6.728;2024-02-23T02:14:12;5.97;;;1.50;;
54743;SDS011;40639;53.170;6.728;2024-02-23T02:16:38;2.97;;;1.17;;
54743;SDS011;40639;53.170;6.728;2024-02-23T02:19:04;4.47;;;1.17;;
54743;SDS011;40639;53.170;6.728;2024-02-23T02:21:31;6.68;;;1.50;;
54743;SDS011;40639;53.170;6.728;2024-02-23T02:23:57;8.93;;;1.60;;
54743;SDS011;40639;53.170;6.728;2024-02-23T02:26:23;9.20;;;1.85;;
54743;SDS011;40639;53.170;6.728;2024-02-23T02:28:49;9.32;;;1.40;;
54743;SDS011;40639;53.170;6.728;2024-02-23T02:31:16;6.38;;;1.50;;
54743;SDS011;40639;53.170;6.728;2024-02-23T02:33:42;8.48;;;1.52;;
54743;SDS011;40639;53.170;6.728;2024-02-23T02:36:09;7.82;;;1.67;;
54743;SDS011;40639;53.170;6.728;2024-02-23T02:38:36;6.93;;;2.10;;
54743;SDS011;40639;53.170;6.728;2024-02-23T02:41:02;6.25;;;1.70;;
54743;SDS011;40639;53.170;6.728;2024-02-23T02:43:30;4.97;;;1.50;;
54743;SDS011;40639;53.170;6.728;2024-02-23T02:45:56;8.13;;;1.77;;
54743;SDS011;40639;53.170;6.728;2024-02-23T02:48:23;7.60;;;1.95;;
54743;SDS011;40639;53.170;6.728;2024-02-23T02:50:49;7.15;;;1.80;;
54743;SDS011;40639;53.170;6.728;2024-02-23T02:53:16;8.38;;;1.75;;
54743;SDS011;40639;53.170;6.728;2024-02-23T02:55:43;7.80;;;2.00;;
54743;SDS011;40639;53.170;6.728;2024-02-23T02:58:10;5.22;;;1.88;;
54743;SDS011;40639;53.170;6.728;2024-02-23T03:00:37;7.80;;;1.75;;
54743;SDS011;40639;53.170;6.728;2024-02-23T03:03:03;8.10;;;1.60;;
54743;SDS011;40639;53.170;6.728;2024-02-23T03:05:29;7.10;;;1.63;;
54743;SDS011;40639;53.170;6.728;2024-02-23T03:07:55;7.03;;;1.60;;
54743;SDS011;40639;53.170;6.728;2024-02-23T03:10:21;6.72;;;1.48;;
54743;SDS011;40639;53.170;6.728;2024-02-23T03:12:47;5.75;;;1.60;;
54743;SDS011;40639;53.170;6.728;2024-02-23T03:15:13;12.77;;;1.67;;
54743;SDS011;40639;53.170;6.728;2024-02-23T03:17:40;5.75;;;1.50;;
54743;SDS011;40639;53.170;6.728;2024-02-23T03:20:06;8.23;;;1.50;;
54743;SDS011;40639;53.170;6.728;2024-02-23T03:22:36;7.07;;;1.40;;
54743;SDS011;40639;53.170;6.728;2024-02-23T03:25:03;6.22;;;1.80;;
54743;SDS011;40639;53.170;6.728;2024-02-23T03:27:33;6.30;;;1.90;;
54743;SDS011;40639;53.170;6.728;2024-02-23T03:30:00;9.32;;;1.73;;
54743;SDS011;40639;53.170;6.728;2024-02-23T03:32:26;7.80;;;1.52;;
54743;SDS011;40639;53.170;6.728;2024-02-23T03:34:52;6.72;;;1.63;;
54743;SDS011;40639;53.170;6.728;2024-02-23T03:37:18;6.03;;;1.85;;
54743;SDS011;40639;53.170;6.728;2024-02-23T03:39:44;5.93;;;1.48;;
54743;SDS011;40639;53.170;6.728;2024-02-23T03:42:11;10.77;;;1.90;;
54743;SDS011;40639;53.170;6.728;2024-02-23T03:44:37;3.78;;;1.30;;
54743;SDS011;40639;53.170;6.728;2024-02-23T03:47:03;5.20;;;1.38;;
54743;SDS011;40639;53.170;6.728;2024-02-23T03:49:30;8.35;;;2.13;;
54743;SDS011;40639;53.170;6.728;2024-02-23T03:51:56;8.25;;;2.03;;
54743;SDS011;40639;53.170;6.728;2024-02-23T03:54:22;6.20;;;1.33;;
54743;SDS011;40639;53.170;6.728;2024-02-23T03:56:48;6.72;;;1.45;;
54743;SDS011;40639;53.170;6.728;2024-02-23T03:59:14;4.97;;;1.27;;
54743;SDS011;40639;53.170;6.728;2024-02-23T04:01:40;5.85;;;1.33;;
54743;SDS011;40639;53.170;6.728;2024-02-23T04:04:07;5.75;;;1.23;;
54743;SDS011;40639;53.170;6.728;2024-02-23T04:06:33;7.25;;;1.33;;
54743;SDS011;40639;53.170;6.728;2024-02-23T04:08:59;5.93;;;1.20;;
54743;SDS011;40639;53.170;6.728;2024-02-23T04:11:25;7.47;;;1.60;;
54743;SDS011;40639;53.170;6.728;2024-02-23T04:13:52;6.85;;;1.77;;
54743;SDS011;40639;53.170;6.728;2024-02-23T04:16:18;5.50;;;1.50;;
54743;SDS011;40639;53.170;6.728;2024-02-23T04:18:44;3.88;;;1.50;;
54743;SDS011;40639;53.170;6.728;2024-02-23T04:21:10;3.85;;;1.08;;
54743;SDS011;40639;53.170;6.728;2024-02-23T04:23:36;4.28;;;1.23;;
54743;SDS011;40639;53.170;6.728;2024-02-23T04:26:02;6.13;;;1.35;;
54743;SDS011;40639;53.170;6.728;2024-02-23T04:28:28;8.70;;;1.65;;
54743;SDS011;40639;53.170;6.728;2024-02-23T04:30:56;6.15;;;1.30;;
54743;SDS011;40639;53.170;6.728;2024-02-23T04:33:22;8.57;;;1.50;;
54743;SDS011;40639;53.170;6.728;2024-02-23T04:35:48;6.63;;;1.13;;
54743;SDS011;40639;53.170;6.728;2024-02-23T04:38:15;7.20;;;1.63;;
54743;SDS011;40639;53.170;6.728;2024-02-23T04:40:41;6.18;;;2.22;;
54743;SDS011;40639;53.170;6.728;2024-02-23T04:43:07;5.85;;;1.23;;
54743;SDS011;40639;53.170;6.728;2024-02-23T04:45:33;11.10;;;1.60;;
54743;SDS011;40639;53.170;6.728;2024-02-23T04:47:59;5.88;;;1.08;;
54743;SDS011;40639;53.170;6.728;2024-02-23T04:50:25;5.30;;;1.25;;
54743;SDS011;40639;53.170;6.728;2024-02-23T04:52:51;10.70;;;1.80;;
54743;SDS011;40639;53.170;6.728;2024-02-23T04:55:17;5.32;;;1.30;;
54743;SDS011;40639;53.170;6.728;2024-02-23T04:57:43;3.83;;;1.60;;
54743;SDS011;40639;53.170;6.728;2024-02-23T05:00:10;6.07;;;1.55;;
54743;SDS011;40639;53.170;6.728;2024-02-23T05:02:36;3.80;;;1.27;;
54743;SDS011;40639;53.170;6.728;2024-02-23T05:05:03;5.82;;;1.27;;
54743;SDS011;40639;53.170;6.728;2024-02-23T05:07:32;5.90;;;1.40;;
54743;SDS011;40639;53.170;6.728;2024-02-23T05:09:59;4.35;;;1.63;;
54743;SDS011;40639;53.170;6.728;2024-02-23T05:12:25;11.75;;;1.48;;
54743;SDS011;40639;53.170;6.728;2024-02-23T05:14:51;5.25;;;1.60;;
54743;SDS011;40639;53.170;6.728;2024-02-23T05:17:17;5.85;;;1.40;;
54743;SDS011;40639;53.170;6.728;2024-02-23T05:19:44;7.10;;;2.25;;
54743;SDS011;40639;53.170;6.728;2024-02-23T05:22:11;9.23;;;1.55;;
54743;SDS011;40639;53.170;6.728;2024-02-23T05:24:37;14.18;;;1.90;;
54743;SDS011;40639;53.170;6.728;2024-02-23T05:27:04;7.82;;;1.58;;
54743;SDS011;40639;53.170;6.728;2024-02-23T05:29:30;7.38;;;1.23;;
54743;SDS011;40639;53.170;6.728;2024-02-23T05:31:56;4.13;;;1.45;;
54743;SDS011;40639;53.170;6.728;2024-02-23T05:34:23;11.07;;;1.83;;
54743;SDS011;40639;53.170;6.728;2024-02-23T05:36:50;5.90;;;1.60;;
54743;SDS011;40639;53.170;6.728;2024-02-23T05:39:16;4.63;;;1.27;;
54743;SDS011;40639;53.170;6.728;2024-02-23T05:41:43;7.15;;;1.38;;
54743;SDS011;40639;53.170;6.728;2024-02-23T05:44:09;2.83;;;1.23;;
54743;SDS011;40639;53.170;6.728;2024-02-23T05:46:36;9.75;;;1.90;;
54743;SDS011;40639;53.170;6.728;2024-02-23T05:49:02;4.82;;;1.50;;
54743;SDS011;40639;53.170;6.728;2024-02-23T05:51:32;7.25;;;1.70;;
54743;SDS011;40639;53.170;6.728;2024-02-23T05:54:00;7.50;;;2.17;;
54743;SDS011;40639;53.170;6.728;2024-02-23T05:56:26;6.47;;;1.95;;
54743;SDS011;40639;53.170;6.728;2024-02-23T05:58:52;11.57;;;2.22;;
54743;SDS011;40639;53.170;6.728;2024-02-23T06:01:19;4.78;;;2.50;;
54743;SDS011;40639;53.170;6.728;2024-02-23T06:03:45;8.82;;;2.78;;
54743;SDS011;40639;53.170;6.728;2024-02-23T06:06:12;7.18;;;3.72;;
54743;SDS011;40639;53.170;6.728;2024-02-23T06:08:38;11.55;;;4.03;;
54743;SDS011;40639;53.170;6.728;2024-02-23T06:11:04;9.40;;;3.85;;
54743;SDS011;40639;53.170;6.728;2024-02-23T06:13:30;6.45;;;3.33;;
54743;SDS011;40639;53.170;6.728;2024-02-23T06:15:56;10.77;;;4.25;;
54743;SDS011;40639;53.170;6.728;2024-02-23T06:18:23;8.27;;;3.85;;
54743;SDS011;40639;53.170;6.728;2024-02-23T06:20:49;7.78;;;3.67;;
54743;SDS011;40639;53.170;6.728;2024-02-23T06:23:16;7.07;;;4.15;;
54743;SDS011;40639;53.170;6.728;2024-02-23T06:25:42;9.40;;;4.50;;
54743;SDS011;40639;53.170;6.728;2024-02-23T06:28:11;10.38;;;5.07;;
54743;SDS011;40639;53.170;6.728;2024-02-23T06:30:37;14.00;;;5.18;;
54743;SDS011;40639;53.170;6.728;2024-02-23T06:33:04;9.60;;;4.70;;
54743;SDS011;40639;53.170;6.728;2024-02-23T06:35:30;10.65;;;4.72;;
54743;SDS011;40639;53.170;6.728;2024-02-23T06:37:56;11.23;;;4.80;;
54743;SDS011;40639;53.170;6.728;2024-02-23T06:40:22;10.35;;;5.00;;
54743;SDS011;40639;53.170;6.728;2024-02-23T06:42:48;9.60;;;4.20;;
54743;SDS011;40639;53.170;6.728;2024-02-23T06:45:15;9.27;;;4.28;;
54743;SDS011;40639;53.170;6.728;2024-02-23T06:47:41;12.65;;;4.78;;
54743;SDS011;40639;53.170;6.728;2024-02-23T06:50:10;7.85;;;3.55;;
54743;SDS011;40639;53.170;6.728;2024-02-23T06:52:36;11.90;;;4.05;;
54743;SDS011;40639;53.170;6.728;2024-02-23T06:55:02;13.25;;;4.78;;
54743;SDS011;40639;53.170;6.728;2024-02-23T06:57:29;9.30;;;4.57;;
54743;SDS011;40639;53.170;6.728;2024-02-23T06:59:56;9.43;;;4.20;;
54743;SDS011;40639;53.170;6.728;2024-02-23T07:02:22;12.05;;;4.18;;
54743;SDS011;40639;53.170;6.728;2024-02-23T07:04:48;10.80;;;4.22;;
54743;SDS011;40639;53.170;6.728;2024-02-23T07:07:14;9.07;;;4.25;;
54743;SDS011;40639;53.170;6.728;2024-02-23T07:09:40;11.23;;;4.13;;
54743;SDS011;40639;53.170;6.728;2024-02-23T07:12:07;10.70;;;4.55;;
54743;SDS011;40639;53.170;6.728;2024-02-23T07:14:35;9.77;;;4.55;;
54743;SDS011;40639;53.170;6.728;2024-02-23T07:17:01;12.40;;;4.97;;
54743;SDS011;40639;53.170;6.728;2024-02-23T07:19:27;9.13;;;4.15;;
54743;SDS011;40639;53.170;6.728;2024-02-23T07:21:54;10.57;;;4.25;;
54743;SDS011;40639;53.170;6.728;2024-02-23T07:24:20;10.23;;;4.47;;
54743;SDS011;40639;53.170;6.728;2024-02-23T07:26:46;8.30;;;3.95;;
54743;SDS011;40639;53.170;6.728;2024-02-23T07:29:13;11.20;;;4.40;;
54743;SDS011;40639;53.170;6.728;2024-02-23T07:31:39;8.02;;;4.05;;
54743;SDS011;40639;53.170;6.728;2024-02-23T07:34:05;9.38;;;3.58;;
54743;SDS011;40639;53.170;6.728;2024-02-23T07:36:31;7.97;;;3.70;;
54743;SDS011;40639;53.170;6.728;2024-02-23T07:38:57;10.95;;;4.43;;
54743;SDS011;40639;53.170;6.728;2024-02-23T07:41:23;11.32;;;4.68;;
54743;SDS011;40639;53.170;6.728;2024-02-23T07:43:49;7.90;;;3.40;;
54743;SDS011;40639;53.170;6.728;2024-02-23T07:46:15;5.85;;;3.22;;
54743;SDS011;40639;53.170;6.728;2024-02-23T07:48:41;12.20;;;3.45;;
54743;SDS011;40639;53.170;6.728;2024-02-23T07:51:08;9.57;;;3.55;;
54743;SDS011;40639;53.170;6.728;2024-02-23T07:53:34;10.57;;;3.50;;
54743;SDS011;40639;53.170;6.728;2024-02-23T07:56:00;8.02;;;3.78;;
54743;SDS011;40639;53.170;6.728;2024-02-23T07:58:30;8.75;;;3.95;;
54743;SDS011;40639;53.170;6.728;2024-02-23T08:00:56;7.32;;;3.50;;
54743;SDS011;40639;53.170;6.728;2024-02-23T08:03:22;8.85;;;2.97;;
54743;SDS011;40639;53.170;6.728;2024-02-23T08:05:49;9.82;;;3.85;;
54743;SDS011;40639;53.170;6.728;2024-02-23T08:08:15;7.88;;;3.28;;
54743;SDS011;40639;53.170;6.728;2024-02-23T08:10:41;9.27;;;3.47;;
54743;SDS011;40639;53.170;6.728;2024-02-23T08:13:07;5.95;;;3.17;;
54743;SDS011;40639;53.170;6.728;2024-02-23T08:15:35;9.43;;;3.03;;
54743;SDS011;40639;53.170;6.728;2024-02-23T08:18:02;9.15;;;2.95;;
54743;SDS011;40639;53.170;6.728;2024-02-23T08:20:28;9.73;;;3.20;;
54743;SDS011;40639;53.170;6.728;2024-02-23T08:22:54;5.85;;;2.40;;
54743;SDS011;40639;53.170;6.728;2024-02-23T08:25:20;7.43;;;2.28;;
54743;SDS011;40639;53.170;6.728;2024-02-23T08:27:46;7.72;;;2.20;;
54743;SDS011;40639;53.170;6.728;2024-02-23T08:30:14;3.72;;;2.08;;
54743;SDS011;40639;53.170;6.728;2024-02-23T08:32:40;5.72;;;2.17;;
54743;SDS011;40639;53.170;6.728;2024-02-23T08:35:06;5.85;;;1.83;;
54743;SDS011;40639;53.170;6.728;2024-02-23T08:37:33;5.07;;;1.80;;
54743;SDS011;40639;53.170;6.728;2024-02-23T08:39:59;4.45;;;2.38;;
54743;SDS011;40639;53.170;6.728;2024-02-23T08:42:26;3.47;;;1.52;;
54743;SDS011;40639;53.170;6.728;2024-02-23T08:44:52;6.28;;;2.30;;
54743;SDS011;40639;53.170;6.728;2024-02-23T08:47:19;2.42;;;1.38;;
54743;SDS011;40639;53.170;6.728;2024-02-23T08:49:45;5.38;;;1.65;;
54743;SDS011;40639;53.170;6.728;2024-02-23T08:52:11;3.45;;;1.52;;
54743;SDS011;40639;53.170;6.728;2024-02-23T08:54:37;3.25;;;1.30;;
54743;SDS011;40639;53.170;6.728;2024-02-23T08:57:04;5.13;;;1.50;;
54743;SDS011;40639;53.170;6.728;2024-02-23T08:59:30;4.30;;;1.58;;
54743;SDS011;40639;53.170;6.728;2024-02-23T09:01:57;5.45;;;1.92;;
54743;SDS011;40639;53.170;6.728;2024-02-23T09:04:23;4.80;;;1.73;;
54743;SDS011;40639;53.170;6.728;2024-02-23T09:06:49;7.38;;;1.75;;
54743;SDS011;40639;53.170;6.728;2024-02-23T09:09:16;4.60;;;2.00;;
54743;SDS011;40639;53.170;6.728;2024-02-23T09:11:42;5.07;;;1.55;;
54743;SDS011;40639;53.170;6.728;2024-02-23T09:14:08;7.50;;;1.98;;
54743;SDS011;40639;53.170;6.728;2024-02-23T09:16:35;4.93;;;1.63;;
54743;SDS011;40639;53.170;6.728;2024-02-23T09:19:01;8.38;;;2.08;;
54743;SDS011;40639;53.170;6.728;2024-02-23T09:21:27;3.92;;;1.70;;
54743;SDS011;40639;53.170;6.728;2024-02-23T09:23:53;2.78;;;1.25;;
54743;SDS011;40639;53.170;6.728;2024-02-23T09:26:19;8.07;;;1.65;;
54743;SDS011;40639;53.170;6.728;2024-02-23T09:28:45;4.38;;;2.15;;
54743;SDS011;40639;53.170;6.728;2024-02-23T09:31:11;3.72;;;1.27;;
54743;SDS011;40639;53.170;6.728;2024-02-23T09:33:37;6.13;;;1.60;;
54743;SDS011;40639;53.170;6.728;2024-02-23T09:36:04;8.43;;;1.50;;
54743;SDS011;40639;53.170;6.728;2024-02-23T09:38:30;4.07;;;1.67;;
54743;SDS011;40639;53.170;6.728;2024-02-23T09:40:57;7.78;;;1.75;;
54743;SDS011;40639;53.170;6.728;2024-02-23T09:43:25;2.30;;;1.33;;
54743;SDS011;40639;53.170;6.728;2024-02-23T09:45:55;4.90;;;1.40;;
54743;SDS011;40639;53.170;6.728;2024-02-23T09:48:22;4.20;;;1.30;;
54743;SDS011;40639;53.170;6.728;2024-02-23T09:50:50;5.93;;;1.33;;
54743;SDS011;40639;53.170;6.728;2024-02-23T09:53:18;8.15;;;1.50;;
54743;SDS011;40639;53.170;6.728;2024-02-23T09:55:46;3.45;;;1.40;;
54743;SDS011;40639;53.170;6.728;2024-02-23T09:58:13;5.45;;;1.15;;
54743;SDS011;40639;53.170;6.728;2024-02-23T10:00:42;18.05;;;10.73;;
54743;SDS011;40639;53.170;6.728;2024-02-23T10:03:08;5.20;;;1.40;;
54743;SDS011;40639;53.170;6.728;2024-02-23T10:05:34;4.45;;;1.23;;
54743;SDS011;40639;53.170;6.728;2024-02-23T10:08:01;5.00;;;1.27;;
54743;SDS011;40639;53.170;6.728;2024-02-23T10:10:34;4.00;;;0.93;;
54743;SDS011;40639;53.170;6.728;2024-02-23T10:13:00;3.78;;;1.05;;
54743;SDS011;40639;53.170;6.728;2024-02-23T10:15:29;3.95;;;1.00;;
54743;SDS011;40639;53.170;6.728;2024-02-23T10:17:58;5.75;;;1.38;;
54743;SDS011;40639;53.170;6.728;2024-02-23T10:20:25;6.28;;;1.30;;
54743;SDS011;40639;53.170;6.728;2024-02-23T10:22:51;4.97;;;0.93;;
54743;SDS011;40639;53.170;6.728;2024-02-23T10:25:18;3.33;;;1.33;;
54743;SDS011;40639;53.170;6.728;2024-02-23T10:27:45;5.57;;;1.10;;
54743;SDS011;40639;53.170;6.728;2024-02-23T10:30:11;3.50;;;1.10;;
54743;SDS011;40639;53.170;6.728;2024-02-23T10:32:40;3.40;;;1.05;;
54743;SDS011;40639;53.170;6.728;2024-02-23T10:35:11;6.43;;;1.50;;
54743;SDS011;40639;53.170;6.728;2024-02-23T10:37:41;4.57;;;1.15;;
54743;SDS011;40639;53.170;6.728;2024-02-23T10:40:07;3.90;;;1.45;;
54743;SDS011;40639;53.170;6.728;2024-02-23T10:42:35;3.25;;;1.27;;
54743;SDS011;40639;53.170;6.728;2024-02-23T10:45:02;2.78;;;1.20;;
54743;SDS011;40639;53.170;6.728;2024-02-23T10:47:30;5.10;;;1.05;;
54743;SDS011;40639;53.170;6.728;2024-02-23T10:49:56;5.75;;;1.25;;
54743;SDS011;40639;53.170;6.728;2024-02-23T10:52:24;5.05;;;1.00;;
54743;SDS011;40639;53.170;6.728;2024-02-23T10:54:51;3.55;;;1.00;;
54743;SDS011;40639;53.170;6.728;2024-02-23T10:57:18;3.13;;;1.13;;
54743;SDS011;40639;53.170;6.728;2024-02-23T10:59:47;3.70;;;1.02;;
54743;SDS011;40639;53.170;6.728;2024-02-23T11:02:14;5.13;;;1.35;;
54743;SDS011;40639;53.170;6.728;2024-02-23T11:04:44;4.70;;;0.90;;
54743;SDS011;40639;53.170;6.728;2024-02-23T11:07:14;4.22;;;1.30;;
54743;SDS011;40639;53.170;6.728;2024-02-23T11:09:41;4.13;;;1.00;;
54743;SDS011;40639;53.170;6.728;2024-02-23T11:12:07;4.60;;;1.77;;
54743;SDS011;40639;53.170;6.728;2024-02-23T11:14:38;8.40;;;1.17;;
54743;SDS011;40639;53.170;6.728;2024-02-23T11:17:04;2.90;;;1.08;;
54743;SDS011;40639;53.170;6.728;2024-02-23T11:19:38;3.08;;;1.00;;
54743;SDS011;40639;53.170;6.728;2024-02-23T11:22:09;7.22;;;2.25;;
54743;SDS011;40639;53.170;6.728;2024-02-23T11:24:41;4.82;;;1.30;;
54743;SDS011;40639;53.170;6.728;2024-02-23T11:27:14;4.00;;;1.10;;
54743;SDS011;40639;53.170;6.728;2024-02-23T11:29:43;4.65;;;0.90;;
54743;SDS011;40639;53.170;6.728;2024-02-23T11:32:13;5.18;;;1.33;;
54743;SDS011;40639;53.170;6.728;2024-02-23T11:34:39;3.55;;;0.93;;
54743;SDS011;40639;53.170;6.728;2024-02-23T11:37:11;5.88;;;1.15;;
54743;SDS011;40639;53.170;6.728;2024-02-23T11:39:38;5.00;;;1.20;;
54743;SDS011;40639;53.170;6.728;2024-02-23T11:42:07;2.63;;;0.90;;
54743;SDS011;40639;53.170;6.728;2024-02-23T11:44:34;5.82;;;1.48;;
54743;SDS011;40639;53.170;6.728;2024-02-23T11:47:00;6.35;;;1.50;;
54743;SDS011;40639;53.170;6.728;2024-02-23T11:49:29;5.10;;;1.45;;
54743;SDS011;40639;53.170;6.728;2024-02-23T11:51:56;3.83;;;1.05;;
54743;SDS011;40639;53.170;6.728;2024-02-23T11:54:22;2.75;;;1.20;;
54743;SDS011;40639;53.170;6.728;2024-02-23T11:56:49;2.75;;;1.33;;
54743;SDS011;40639;53.170;6.728;2024-02-23T11:59:17;6.43;;;1.10;;
54743;SDS011;40639;53.170;6.728;2024-02-23T12:01:45;3.22;;;1.10;;
54743;SDS011;40639;53.170;6.728;2024-02-23T12:04:12;3.92;;;1.77;;
54743;SDS011;40639;53.170;6.728;2024-02-23T12:06:38;3.33;;;0.93;;
54743;SDS011;40639;53.170;6.728;2024-02-23T12:09:04;3.20;;;0.90;;
54743;SDS011;40639;53.170;6.728;2024-02-23T12:11:30;4.32;;;1.13;;
54743;SDS011;40639;53.170;6.728;2024-02-23T12:13:57;6.20;;;1.10;;
54743;SDS011;40639;53.170;6.728;2024-02-23T12:16:23;3.92;;;1.02;;
54743;SDS011;40639;53.170;6.728;2024-02-23T12:18:53;2.78;;;0.95;;
54743;SDS011;40639;53.170;6.728;2024-02-23T12:21:20;6.25;;;1.17;;
54743;SDS011;40639;53.170;6.728;2024-02-23T12:23:48;5.47;;;1.20;;
54743;SDS011;40639;53.170;6.728;2024-02-23T12:26:15;4.65;;;1.20;;
54743;SDS011;40639;53.170;6.728;2024-02-23T12:28:42;4.65;;;1.00;;
54743;SDS011;40639;53.170;6.728;2024-02-23T12:31:09;5.05;;;1.60;;
54743;SDS011;40639;53.170;6.728;2024-02-23T12:33:36;3.53;;;1.25;;
54743;SDS011;40639;53.170;6.728;2024-02-23T12:36:03;3.17;;;1.13;;
54743;SDS011;40639;53.170;6.728;2024-02-23T12:38:29;4.95;;;1.33;;
54743;SDS011;40639;53.170;6.728;2024-02-23T12:40:55;3.60;;;1.00;;
54743;SDS011;40639;53.170;6.728;2024-02-23T12:43:22;7.35;;;1.42;;
54743;SDS011;40639;53.170;6.728;2024-02-23T12:45:54;4.25;;;1.17;;
54743;SDS011;40639;53.170;6.728;2024-02-23T12:48:20;5.28;;;1.15;;
54743;SDS011;40639;53.170;6.728;2024-02-23T12:50:46;6.28;;;1.08;;
54743;SDS011;40639;53.170;6.728;2024-02-23T12:55:59;5.07;;;1.05;;
54743;SDS011;40639;53.170;6.728;2024-02-23T12:58:25;1.40;;;0.90;;
54743;SDS011;40639;53.170;6.728;2024-02-23T13:00:51;6.07;;;1.70;;
54743;SDS011;40639;53.170;6.728;2024-02-23T13:03:18;5.43;;;1.30;;
54743;SDS011;40639;53.170;6.728;2024-02-23T13:05:44;1.58;;;1.10;;
54743;SDS011;40639;53.170;6.728;2024-02-23T13:08:10;4.93;;;1.58;;
54743;SDS011;40639;53.170;6.728;2024-02-23T13:10:36;3.17;;;1.23;;
54743;SDS011;40639;53.170;6.728;2024-02-23T13:13:02;2.75;;;1.33;;
54743;SDS011;40639;53.170;6.728;2024-02-23T13:15:28;2.17;;;1.10;;
54743;SDS011;40639;53.170;6.728;2024-02-23T13:17:55;4.57;;;1.20;;
54743;SDS011;40639;53.170;6.728;2024-02-23T13:20:22;4.47;;;1.10;;
54743;SDS011;40639;53.170;6.728;2024-02-23T13:22:49;5.10;;;1.40;;
54743;SDS011;40639;53.170;6.728;2024-02-23T13:25:15;3.72;;;1.30;;
54743;SDS011;40639;53.170;6.728;2024-02-23T13:27:41;3.58;;;1.20;;
54743;SDS011;40639;53.170;6.728;2024-02-23T13:30:08;4.03;;;1.15;;
54743;SDS011;40639;53.170;6.728;2024-02-23T13:32:34;5.00;;;1.27;;
54743;SDS011;40639;53.170;6.728;2024-02-23T13:35:00;2.72;;;1.27;;
54743;SDS011;40639;53.170;6.728;2024-02-23T13:37:29;3.47;;;1.38;;
54743;SDS011;40639;53.170;6.728;2024-02-23T13:39:55;6.30;;;1.48;;
54743;SDS011;40639;53.170;6.728;2024-02-23T13:42:21;4.78;;;1.30;;
54743;SDS011;40639;53.170;6.728;2024-02-23T13:44:47;9.27;;;1.88;;
54743;SDS011;40639;53.170;6.728;2024-02-23T13:47:14;2.30;;;1.05;;
54743;SDS011;40639;53.170;6.728;2024-02-23T13:49:40;2.92;;;1.20;;
54743;SDS011;40639;53.170;6.728;2024-02-23T13:52:06;3.85;;;1.45;;
54743;SDS011;40639;53.170;6.728;2024-02-23T13:54:32;3.45;;;1.30;;
54743;SDS011;40639;53.170;6.728;2024-02-23T13:56:58;2.97;;;1.42;;
54743;SDS011;40639;53.170;6.728;2024-02-23T13:59:25;6.18;;;1.52;;
54743;SDS011;40639;53.170;6.728;2024-02-23T14:01:51;4.13;;;1.35;;
54743;SDS011;40639;53.170;6.728;2024-02-23T14:04:18;2.88;;;1.25;;
54743;SDS011;40639;53.170;6.728;2024-02-23T14:06:44;4.40;;;1.30;;
54743;SDS011;40639;53.170;6.728;2024-02-23T14:09:10;3.63;;;1.40;;
54743;SDS011;40639;53.170;6.728;2024-02-23T14:11:36;2.72;;;1.30;;
54743;SDS011;40639;53.170;6.728;2024-02-23T14:14:02;4.15;;;1.30;;
54743;SDS011;40639;53.170;6.728;2024-02-23T14:16:28;5.00;;;1.50;;
54743;SDS011;40639;53.170;6.728;2024-02-23T14:18:55;4.88;;;1.40;;
54743;SDS011;40639;53.170;6.728;2024-02-23T14:21:21;4.25;;;1.40;;
54743;SDS011;40639;53.170;6.728;2024-02-23T14:23:47;5.63;;;1.70;;
54743;SDS011;40639;53.170;6.728;2024-02-23T14:26:13;4.57;;;1.30;;
54743;SDS011;40639;53.170;6.728;2024-02-23T14:28:40;3.17;;;1.55;;
54743;SDS011;40639;53.170;6.728;2024-02-23T14:31:06;3.88;;;1.48;;
54743;SDS011;40639;53.170;6.728;2024-02-23T14:33:32;7.90;;;1.85;;
54743;SDS011;40639;53.170;6.728;2024-02-23T14:35:58;3.95;;;1.50;;
54743;SDS011;40639;53.170;6.728;2024-02-23T14:38:25;3.92;;;1.27;;
54743;SDS011;40639;53.170;6.728;2024-02-23T14:40:51;5.32;;;1.42;;
54743;SDS011;40639;53.170;6.728;2024-02-23T14:43:17;4.80;;;1.52;;
54743;SDS011;40639;53.170;6.728;2024-02-23T14:45:44;4.38;;;1.50;;